Time;durP1;ratioP1;P1;durP2;ratioP2;P2;SDS_P1;SDS_P2;PMS_P1;PMS_P2;Temp;Humidity;BMP_temperature;BMP_pressure;BME280_temperature;BME280_humidity;BME280_pressure;Samples;Min_cycle;Max_cycle;Signal;HPM_P1;HPM_P2
2021/06/16 00:01:00;;;;;;;3.47;2.50;;;;;;;14.74;100.00;93897.28;5135778;27;20200;-76
2021/06/16 00:03:27;;;;;;;5.47;2.40;;;;;;;15.02;100.00;93899.31;5135760;27;20193;-76
2021/06/16 00:05:53;;;;;;;7.63;2.88;;;;;;;14.97;100.00;93893.91;5135689;27;20211;-76
2021/06/16 00:08:20;;;;;;;11.93;2.47;;;;;;;14.92;100.00;93891.16;5135677;27;20203;-76
2021/06/16 00:10:46;;;;;;;5.07;2.17;;;;;;;14.97;100.00;93893.91;5135432;27;20216;-76
2021/06/16 00:13:13;;;;;;;6.53;2.38;;;;;;;15.04;100.00;93888.56;5135705;27;20193;-77
2021/06/16 00:15:41;;;;;;;2.75;2.22;;;;;;;15.14;100.00;93886.19;5135648;27;20201;-76
2021/06/16 00:18:10;;;;;;;3.58;2.20;;;;;;;15.12;100.00;93886.44;5135520;27;20551;-77
2021/06/16 00:20:37;;;;;;;5.53;2.35;;;;;;;15.12;100.00;93886.44;5135386;27;20200;-76
2021/06/16 00:23:04;;;;;;;7.47;2.83;;;;;;;15.17;99.18;93883.91;5135340;27;20196;-76
2021/06/16 00:25:31;;;;;;;2.97;2.10;;;;;;;15.12;100.00;93886.44;5134704;27;20244;-76
2021/06/16 00:27:58;;;;;;;5.50;2.03;;;;;;;15.10;99.94;93882.41;5135645;27;20197;-76
2021/06/16 00:30:25;;;;;;;3.15;2.00;;;;;;;15.10;99.53;93875.31;5135245;27;20197;-76
2021/06/16 00:32:52;;;;;;;4.87;2.30;;;;;;;15.11;99.56;93879.56;5135306;27;20227;-77
2021/06/16 00:35:20;;;;;;;5.05;2.08;;;;;;;15.09;98.27;93881.59;5134938;27;20223;-75
2021/06/16 00:37:47;;;;;;;3.72;2.08;;;;;;;15.14;98.52;93878.31;5134815;27;20203;-77
2021/06/16 00:40:16;;;;;;;5.13;2.83;;;;;;;15.14;98.27;93879.09;5135137;27;20193;-75
2021/06/16 00:42:43;;;;;;;2.47;2.10;;;;;;;15.13;97.93;93877.50;5134879;27;20710;-76
2021/06/16 00:45:11;;;;;;;6.37;2.10;;;;;;;15.13;97.72;93881.97;5134844;27;20224;-76
2021/06/16 00:47:38;;;;;;;5.80;2.53;;;;;;;15.11;99.10;93876.91;5134822;27;20204;-75
2021/06/16 00:50:07;;;;;;;3.53;2.30;;;;;;;15.06;99.02;93876.78;5134702;27;20242;-77
2021/06/16 00:52:35;;;;;;;3.28;2.28;;;;;;;15.08;97.65;93882.63;5133909;27;20433;-76
2021/06/16 00:55:02;;;;;;;5.75;2.50;;;;;;;15.05;97.09;93885.69;5134932;27;20196;-76
2021/06/16 00:57:29;;;;;;;3.17;1.85;;;;;;;15.05;96.78;93884.91;5134758;27;20201;-76
2021/06/16 01:00:02;;;;;;;3.58;1.92;;;;;;;14.98;95.91;93875.28;5134627;27;20595;-76
2021/06/16 01:02:33;;;;;;;3.28;2.22;;;;;;;15.05;94.98;93877.03;5134293;27;20192;-75
2021/06/16 01:05:02;;;;;;;3.25;1.90;;;;;;;15.05;95.06;93885.69;5134497;27;20224;-75
2021/06/16 01:07:38;;;;;;;3.30;2.20;;;;;;;15.11;92.43;93878.75;5134345;27;20655;-76
2021/06/16 01:10:11;;;;;;;2.20;1.70;;;;;;;15.12;91.92;93875.91;5134712;27;20521;-76
2021/06/16 01:12:45;;;;;;;3.28;1.88;;;;;;;15.16;91.48;93884.13;5134534;27;20612;-76
2021/06/16 01:15:13;;;;;;;4.20;2.20;;;;;;;15.12;92.11;93878.53;5134319;27;20213;-75
2021/06/16 01:17:46;;;;;;;3.95;1.98;;;;;;;15.17;90.74;93878.66;5134535;27;20201;-75
2021/06/16 01:20:28;;;;;;;4.07;1.83;;;;;;;15.16;90.07;93874.41;5134164;27;20197;-76
2021/06/16 01:23:04;;;;;;;2.65;1.70;;;;;;;15.20;88.18;93876.59;5134405;27;20197;-76
2021/06/16 01:25:39;;;;;;;4.65;1.83;;;;;;;15.24;88.52;93877.72;5133107;27;20234;-77
2021/06/16 01:28:07;;;;;;;3.60;1.88;;;;;;;15.30;86.65;93874.19;5134537;27;20249;-76
2021/06/16 01:30:34;;;;;;;4.50;1.70;;;;;;;15.25;88.43;93871.44;5134249;27;20204;-76
2021/06/16 01:33:02;;;;;;;2.70;1.67;;;;;;;15.21;87.03;93878.22;5134189;27;20207;-78
2021/06/16 01:35:30;;;;;;;1.90;1.70;;;;;;;15.14;87.70;93865.94;5133765;27;20565;-78
2021/06/16 01:37:58;;;;;;;3.38;1.88;;;;;;;15.16;86.86;93873.63;5133121;27;20544;-78
2021/06/16 01:40:26;;;;;;;4.35;1.80;;;;;;;15.09;87.88;93867.66;5133710;27;20200;-77
2021/06/16 01:42:55;;;;;;;4.45;1.65;;;;;;;15.24;85.68;93872.47;5134168;27;20203;-76
2021/06/16 01:45:25;;;;;;;2.70;1.60;;;;;;;15.22;86.05;93877.97;5134020;27;20228;-76
2021/06/16 01:47:53;;;;;;;4.55;2.20;;;;;;;15.16;87.94;93877.03;5134025;27;20197;-76
2021/06/16 01:50:21;;;;;;;3.17;1.83;;;;;;;15.11;88.43;93878.75;5133350;27;20208;-77
2021/06/16 01:52:51;;;;;;;3.53;2.03;;;;;;;15.04;88.73;93878.03;5133621;28;20212;-77
2021/06/16 01:55:20;;;;;;;8.27;1.83;;;;;;;14.99;88.15;93876.09;5133718;28;20663;-77
2021/06/16 01:57:47;;;;;;;6.72;1.80;;;;;;;14.98;87.28;93874.50;5133873;27;20209;-77
2021/06/16 02:00:15;;;;;;;11.48;1.77;;;;;;;15.02;88.71;93866.94;5133717;28;20204;-77
2021/06/16 02:02:43;;;;;;;2.60;1.60;;;;;;;14.98;89.59;93869.22;5133893;28;20200;-76
2021/06/16 02:05:12;;;;;;;3.58;1.60;;;;;;;14.92;89.24;93870.13;5133614;27;20227;-76
2021/06/16 02:07:41;;;;;;;2.03;1.80;;;;;;;14.93;88.74;93861.22;5133471;28;20192;-76
2021/06/16 02:10:12;;;;;;;4.75;1.75;;;;;;;15.03;88.25;93861.47;5133545;27;20675;-77
2021/06/16 02:12:40;;;;;;;1.77;1.50;;;;;;;14.96;89.73;93861.56;5133828;28;20208;-77
2021/06/16 02:15:09;;;;;;;2.63;1.60;;;;;;;14.92;89.75;93862.22;5133654;28;20197;-76
2021/06/16 02:17:38;;;;;;;4.32;1.90;;;;;;;14.94;89.96;93857.56;5132067;28;20430;-76
2021/06/16 02:20:07;;;;;;;3.63;1.70;;;;;;;15.02;88.49;93864.31;5133493;28;20193;-76
2021/06/16 02:22:34;;;;;;;4.70;1.85;;;;;;;15.10;88.30;93862.16;5133805;28;20204;-76
2021/06/16 02:25:00;;;;;;;4.25;1.85;;;;;;;15.03;88.81;93861.47;5133236;28;20587;-75
2021/06/16 02:27:27;;;;;;;9.73;2.28;;;;;;;15.06;88.40;93858.38;5133102;28;20200;-77
2021/06/16 02:29:53;;;;;;;3.85;2.00;;;;;;;15.20;88.54;93858.19;5133530;27;20218;-76
2021/06/16 02:32:20;;;;;;;3.15;1.80;;;;;;;15.22;90.20;93854.31;5133350;28;20208;-77
2021/06/16 02:34:46;;;;;;;6.15;2.40;;;;;;;15.23;89.62;93849.84;5133539;28;20203;-77
2021/06/16 02:37:18;;;;;;;5.10;1.90;;;;;;;15.28;89.13;93856.00;5133315;28;20197;-76
2021/06/16 02:39:50;;;;;;;6.47;2.33;;;;;;;15.28;89.02;93849.97;5133573;28;20208;-76
2021/06/16 02:42:17;;;;;;;6.57;2.38;;;;;;;15.22;91.00;93845.59;5133437;28;20201;-76
2021/06/16 02:44:44;;;;;;;6.82;2.47;;;;;;;15.22;90.25;93841.16;5132813;28;20686;-77
2021/06/16 02:47:13;;;;;;;4.32;2.20;;;;;;;15.17;91.71;93846.28;5133470;28;20445;-76
2021/06/16 02:49:44;;;;;;;7.30;2.33;;;;;;;15.18;91.55;93842.63;5133460;28;20197;-77
2021/06/16 02:52:13;;;;;;;6.70;2.70;;;;;;;15.11;90.41;93840.09;5133294;28;20204;-76
2021/06/16 02:54:43;;;;;;;6.05;2.03;;;;;;;15.01;90.91;93842.50;5133304;28;20205;-77
2021/06/16 02:57:12;;;;;;;7.10;2.42;;;;;;;14.97;93.63;93836.88;5133376;28;20559;-76
2021/06/16 02:59:40;;;;;;;5.67;2.07;;;;;;;14.96;93.23;93850.25;5132279;28;20433;-77
2021/06/16 03:02:06;;;;;;;5.22;2.05;;;;;;;14.85;93.39;93838.66;5134519;27;20208;-76
2021/06/16 03:04:34;;;;;;;4.70;2.00;;;;;;;14.80;93.44;93842.00;5136823;27;20221;-76
2021/06/16 03:07:01;;;;;;;5.43;2.25;;;;;;;14.84;94.63;93836.28;5136659;27;20226;-76
2021/06/16 03:09:29;;;;;;;8.77;2.38;;;;;;;14.88;94.40;93837.44;5136712;27;20203;-76
2021/06/16 03:11:59;;;;;;;3.20;2.60;;;;;;;14.88;93.37;93840.06;5136571;27;20224;-76
2021/06/16 03:14:26;;;;;;;6.13;2.60;;;;;;;14.94;94.25;93837.34;5136363;27;20723;-77
2021/06/16 03:16:52;;;;;;;7.57;2.30;;;;;;;14.99;94.21;93834.03;5136794;27;20204;-75
2021/06/16 03:19:21;;;;;;;4.05;2.30;;;;;;;14.90;94.98;93835.38;5136126;27;20597;-75
2021/06/16 03:21:48;;;;;;;9.45;2.60;;;;;;;14.85;95.37;93833.41;5136438;27;20655;-75
2021/06/16 03:24:17;;;;;;;6.63;2.60;;;;;;;14.83;95.76;93834.69;5136259;27;20583;-76
2021/06/16 03:26:44;;;;;;;2.72;2.08;;;;;;;14.87;95.20;93828.75;5136495;27;20723;-77
2021/06/16 03:29:13;;;;;;;8.25;2.42;;;;;;;14.87;94.51;93826.13;5136329;27;20197;-76
2021/06/16 03:31:41;;;;;;;4.38;2.40;;;;;;;14.89;95.90;93828.50;5136390;27;20200;-77
2021/06/16 03:34:08;;;;;;;3.10;2.27;;;;;;;14.78;96.81;93832.72;5136403;27;20735;-78
2021/06/16 03:36:36;;;;;;;3.40;2.10;;;;;;;14.78;97.01;93828.25;5136151;27;20196;-77
2021/06/16 03:39:05;;;;;;;4.43;2.20;;;;;;;14.76;95.81;93832.94;5135929;27;20212;-76
2021/06/16 03:41:32;;;;;;;4.88;2.63;;;;;;;14.74;96.74;93829.75;5135105;27;20441;-76
2021/06/16 03:43:59;;;;;;;9.15;2.65;;;;;;;14.70;97.45;93833.03;5135764;27;20205;-76
2021/06/16 03:46:29;;;;;;;3.33;2.40;;;;;;;14.70;95.70;93833.84;5135843;27;20710;-76
2021/06/16 03:48:56;;;;;;;3.88;2.00;;;;;;;14.70;95.83;93831.22;5135935;27;20200;-76
2021/06/16 03:51:26;;;;;;;5.10;2.33;;;;;;;14.74;96.51;93834.22;5136044;27;20196;-78
2021/06/16 03:53:53;;;;;;;5.70;2.42;;;;;;;14.80;96.07;93836.75;5136016;27;20303;-78
2021/06/16 03:56:22;;;;;;;3.90;2.10;;;;;;;14.83;96.94;93837.31;5136001;27;20544;-77
2021/06/16 03:58:48;;;;;;;4.15;2.28;;;;;;;14.90;95.51;93838.00;5135796;27;20200;-77
2021/06/16 04:01:16;;;;;;;3.97;2.28;;;;;;;14.99;94.45;93839.28;5135465;27;20208;-77
2021/06/16 04:03:44;;;;;;;2.75;2.10;;;;;;;15.06;93.89;93839.19;5135781;27;20197;-77
2021/06/16 04:06:14;;;;;;;2.97;2.00;;;;;;;15.15;95.51;93837.81;5135173;27;20228;-76
2021/06/16 04:08:41;;;;;;;9.20;2.17;;;;;;;15.20;95.70;93840.56;5135839;27;20196;-76
2021/06/16 04:11:08;;;;;;;4.55;2.05;;;;;;;15.24;94.51;93840.91;5135772;27;20221;-76
2021/06/16 04:13:35;;;;;;;4.10;2.42;;;;;;;15.30;92.33;93840.00;5135243;27;20197;-77
2021/06/16 04:16:03;;;;;;;4.50;1.95;;;;;;;15.39;92.12;93838.66;5135203;27;20203;-77
2021/06/16 04:18:32;;;;;;;3.38;2.33;;;;;;;15.49;91.05;93830.97;5135368;27;20207;-77
2021/06/16 04:21:00;;;;;;;4.47;1.95;;;;;;;15.57;90.23;93839.56;5135553;27;20296;-77
2021/06/16 04:23:27;;;;;;;4.78;2.40;;;;;;;15.63;88.06;93828.13;5135544;27;20196;-77
2021/06/16 04:25:53;;;;;;;4.70;2.22;;;;;;;15.73;88.72;93834.38;5135009;27;20236;-75
2021/06/16 04:28:20;;;;;;;3.30;1.80;;;;;;;15.81;89.33;93833.28;5135013;27;20196;-76
2021/06/16 04:30:46;;;;;;;3.50;2.10;;;;;;;15.81;91.00;93835.13;5135145;27;20223;-75
2021/06/16 04:33:13;;;;;;;3.55;1.92;;;;;;;15.93;91.37;93829.81;5135170;27;20197;-76
2021/06/16 04:35:39;;;;;;;3.95;2.20;;;;;;;16.07;90.51;93833.78;5134836;27;20207;-76
2021/06/16 04:38:07;;;;;;;6.60;2.30;;;;;;;16.25;88.22;93827.56;5135262;27;20193;-76
2021/06/16 04:40:34;;;;;;;2.80;1.58;;;;;;;16.39;86.78;93825.47;5135083;27;20223;-78
2021/06/16 04:43:00;;;;;;;3.30;2.10;;;;;;;16.58;85.12;93821.59;5134860;27;20804;-77
2021/06/16 04:45:27;;;;;;;6.20;2.05;;;;;;;16.89;83.31;93819.53;5134658;27;20232;-76
2021/06/16 04:47:53;;;;;;;4.15;1.75;;;;;;;17.24;79.13;93818.50;5134690;27;20196;-77
2021/06/16 04:50:20;;;;;;;6.88;2.20;;;;;;;17.41;79.45;93818.47;5134487;27;20682;-76
2021/06/16 04:52:46;;;;;;;6.75;1.80;;;;;;;17.63;77.66;93821.16;5134855;27;20205;-76
2021/06/16 04:55:14;;;;;;;1.70;1.60;;;;;;;17.97;74.31;93815.03;5134831;27;20207;-76
2021/06/16 04:57:41;;;;;;;3.70;1.67;;;;;;;18.05;75.68;93812.78;5134833;27;20201;-76
2021/06/16 05:00:11;;;;;;;5.85;1.75;;;;;;;18.27;71.12;93807.47;5134577;27;20203;-75
2021/06/16 05:02:38;;;;;;;6.55;1.50;;;;;;;18.61;69.12;93809.16;5134633;27;20197;-75
2021/06/16 05:05:05;;;;;;;5.70;1.90;;;;;;;18.63;71.32;93823.69;5133750;27;20573;-76
2021/06/16 05:07:31;;;;;;;3.65;1.70;;;;;;;18.82;69.50;93808.28;5134492;27;20193;-77
2021/06/16 05:09:58;;;;;;;5.95;1.80;;;;;;;18.87;68.01;93810.22;5134511;27;20201;-78
2021/06/16 05:12:26;;;;;;;4.13;1.90;;;;;;;19.10;67.45;93814.41;5134414;27;20196;-77
2021/06/16 05:14:53;;;;;;;6.88;1.85;;;;;;;19.17;67.21;93814.19;5134304;27;20688;-77
2021/06/16 05:17:19;;;;;;;3.17;1.73;;;;;;;19.29;66.46;93811.38;5134493;27;20200;-76
2021/06/16 05:19:46;;;;;;;4.53;1.60;;;;;;;19.51;65.22;93812.03;5134500;27;20236;-76
2021/06/16 05:22:15;;;;;;;3.80;1.58;;;;;;;19.84;62.22;93812.78;5134111;27;20201;-77
2021/06/16 05:24:42;;;;;;;4.07;1.63;;;;;;;20.03;61.77;93815.00;5133154;27;20590;-77
2021/06/16 05:27:09;;;;;;;4.45;1.60;;;;;;;20.20;62.20;93812.16;5134186;27;20251;-77
2021/06/16 05:29:37;;;;;;;5.50;1.55;;;;;;;20.35;61.83;93801.63;5134059;27;20211;-76
2021/06/16 05:32:04;;;;;;;2.85;1.80;;;;;;;20.43;62.31;93797.66;5134107;27;20658;-76
2021/06/16 05:34:30;;;;;;;3.45;1.65;;;;;;;20.48;63.19;93801.13;5134069;27;20204;-76
2021/06/16 05:36:57;;;;;;;4.22;2.17;;;;;;;20.66;60.27;93805.16;5133923;27;20200;-77
2021/06/16 05:39:23;;;;;;;3.38;1.50;;;;;;;21.49;59.69;93803.38;5133986;27;20223;-77
2021/06/16 05:41:50;;;;;;;2.65;1.60;;;;;;;22.15;57.89;93799.75;5133426;27;20200;-77
2021/06/16 05:44:16;;;;;;;4.57;1.75;;;;;;;23.08;55.64;93797.44;5133881;27;20197;-76
2021/06/16 05:46:44;;;;;;;6.35;1.65;;;;;;;24.07;52.00;93802.69;5133774;27;20445;-75
2021/06/16 05:49:10;;;;;;;8.95;2.03;;;;;;;24.55;51.92;93798.09;5133318;28;20200;-76
2021/06/16 05:51:37;;;;;;;5.05;1.60;;;;;;;24.78;48.61;93802.88;5133939;28;20199;-76
2021/06/16 05:54:09;;;;;;;3.72;1.38;;;;;;;25.05;48.13;93802.22;5133651;28;20204;-76
2021/06/16 05:56:36;;;;;;;4.57;1.55;;;;;;;25.12;47.36;93806.09;5133774;28;20204;-76
2021/06/16 05:59:02;;;;;;;3.33;1.30;;;;;;;25.45;45.44;93803.47;5133979;28;20196;-75
2021/06/16 06:01:28;;;;;;;3.40;1.17;;;;;;;26.13;45.31;93801.25;5133732;28;20666;-75
2021/06/16 06:03:56;;;;;;;2.47;1.42;;;;;;;26.34;44.68;93806.19;5133866;28;20204;-77
2021/06/16 06:06:23;;;;;;;4.00;1.60;;;;;;;26.29;45.10;93798.25;5133644;28;20243;-76
2021/06/16 06:08:49;;;;;;;3.45;1.40;;;;;;;27.35;43.60;93801.59;5133766;28;20207;-75
2021/06/16 06:11:15;;;;;;;5.05;1.60;;;;;;;27.02;43.59;93803.69;5133438;28;20211;-76
2021/06/16 06:13:42;;;;;;;2.95;1.50;;;;;;;26.26;43.75;93801.53;5133974;28;20219;-76
2021/06/16 06:16:08;;;;;;;2.88;1.30;;;;;;;26.52;45.00;93802.59;5133601;28;20211;-76
2021/06/16 06:18:35;;;;;;;2.53;1.25;;;;;;;26.13;44.48;93800.41;5133568;28;20563;-76
2021/06/16 06:21:03;;;;;;;3.55;1.20;;;;;;;26.00;44.46;93802.03;5133676;28;20209;-75
2021/06/16 06:23:29;;;;;;;2.83;1.38;;;;;;;25.43;45.33;93797.63;5133527;28;20205;-76
2021/06/16 06:25:55;;;;;;;1.90;1.02;;;;;;;25.20;46.45;93801.19;5133300;28;20233;-76
2021/06/16 06:28:22;;;;;;;3.95;1.20;;;;;;;25.38;46.00;93797.72;5133415;28;20196;-76
2021/06/16 06:30:48;;;;;;;3.40;1.65;;;;;;;24.35;46.61;93801.81;5133442;28;20671;-77
2021/06/16 06:33:15;;;;;;;3.00;1.63;;;;;;;23.95;48.46;93797.75;5133304;28;20208;-76
2021/06/16 06:35:42;;;;;;;2.90;1.38;;;;;;;23.90;49.62;93803.91;5134059;27;20200;-76
2021/06/16 06:38:11;;;;;;;2.90;1.33;;;;;;;23.62;49.15;93803.63;5137269;27;20679;-76
2021/06/16 06:40:38;;;;;;;4.10;1.70;;;;;;;23.85;50.65;93803.16;5137473;27;20558;-76
2021/06/16 06:43:04;;;;;;;3.08;1.23;;;;;;;23.79;49.95;93802.41;5129046;27;20194;-79
2021/06/16 06:45:31;;;;;;;3.60;1.40;;;;;;;24.04;49.49;93797.91;5116589;28;20208;-77
2021/06/16 06:47:57;;;;;;;4.97;1.67;;;;;;;23.93;49.18;93802.53;5116423;28;20542;-76
2021/06/16 06:50:24;;;;;;;3.17;1.27;;;;;;;23.97;49.28;93793.69;5116530;28;20205;-75
2021/06/16 06:52:51;;;;;;;2.22;1.65;;;;;;;24.17;49.82;93787.34;5116342;28;20664;-76
2021/06/16 06:55:19;;;;;;;2.80;1.38;;;;;;;24.11;50.58;93793.81;5116712;28;20201;-76
2021/06/16 06:57:46;;;;;;;3.42;1.42;;;;;;;24.13;51.78;93785.50;5116559;28;20197;-78
2021/06/16 07:00:14;;;;;;;4.82;1.40;;;;;;;24.16;50.29;93796.44;5116445;28;20201;-76
2021/06/16 07:02:43;;;;;;;7.13;1.58;;;;;;;24.13;51.40;93788.19;5116097;28;20678;-77
2021/06/16 07:05:11;;;;;;;3.67;1.40;;;;;;;24.08;50.01;93780.25;5116211;28;20296;-76
2021/06/16 07:07:37;;;;;;;4.80;1.50;;;;;;;23.96;51.24;93786.75;5134592;27;20223;-76
2021/06/16 07:10:04;;;;;;;5.35;1.40;;;;;;;24.04;49.66;93785.34;5136850;27;20437;-76
2021/06/16 07:12:32;;;;;;;3.00;1.40;;;;;;;24.00;51.84;93784.34;5136630;27;20212;-76
2021/06/16 07:14:58;;;;;;;3.13;1.50;;;;;;;24.01;54.03;93778.72;5136693;27;20623;-75
2021/06/16 07:17:25;;;;;;;4.78;1.50;;;;;;;23.93;51.05;93784.69;5136661;27;20655;-76
2021/06/16 07:19:52;;;;;;;6.93;1.70;;;;;;;23.97;50.46;93783.03;5136477;27;20200;-75
2021/06/16 07:22:19;;;;;;;3.85;1.45;;;;;;;23.89;49.60;93786.31;5136443;27;20199;-77
2021/06/16 07:24:46;;;;;;;5.15;1.50;;;;;;;24.04;52.19;93790.69;5136421;27;20231;-76
2021/06/16 07:27:12;;;;;;;3.28;1.27;;;;;;;24.12;55.14;93779.41;5127533;27;20228;-77
2021/06/16 07:29:40;;;;;;;3.00;1.77;;;;;;;24.33;53.21;93787.16;5115669;28;20291;-76
2021/06/16 07:32:07;;;;;;;5.00;1.33;;;;;;;24.52;54.14;93779.19;5115814;28;20559;-76
2021/06/16 07:34:34;;;;;;;6.35;1.65;;;;;;;24.73;51.62;93777.03;5115615;28;20212;-78
2021/06/16 07:37:01;;;;;;;4.68;1.80;;;;;;;24.67;50.79;93775.53;5115676;28;20201;-77
2021/06/16 07:39:28;;;;;;;3.20;1.42;;;;;;;24.67;50.38;93770.19;5115752;28;20194;-78
2021/06/16 07:41:54;;;;;;;6.13;1.60;;;;;;;24.64;51.89;93773.44;5115646;28;20204;-76
2021/06/16 07:44:21;;;;;;;5.70;1.52;;;;;;;24.52;51.24;93776.50;5115475;28;20194;-76
2021/06/16 07:46:49;;;;;;;4.25;1.80;;;;;;;24.60;50.99;93770.56;5115122;28;20316;-79
2021/06/16 07:49:16;;;;;;;8.98;1.83;;;;;;;24.60;49.88;93775.88;5130768;27;20196;-80
2021/06/16 07:51:42;;;;;;;3.20;1.58;;;;;;;24.57;49.38;93773.78;5135753;27;20197;-77
2021/06/16 07:54:11;;;;;;;2.83;1.58;;;;;;;24.68;52.47;93775.25;5135817;27;20666;-79
2021/06/16 07:56:38;;;;;;;5.72;1.75;;;;;;;24.85;50.17;93774.72;5135872;27;20252;-80
2021/06/16 07:59:05;;;;;;;4.10;1.67;;;;;;;24.91;49.30;93778.91;5135945;27;20282;-83
2021/06/16 08:01:32;;;;;;;2.42;1.48;;;;;;;25.01;48.76;93777.94;5135727;27;20270;-81
2021/06/16 08:04:00;;;;;;;2.55;1.60;;;;;;;24.99;48.98;93777.44;5135999;27;20196;-78
2021/06/16 08:06:26;;;;;;;3.92;1.58;;;;;;;24.91;51.19;93776.25;5135543;27;20228;-80
2021/06/16 08:08:53;;;;;;;4.47;1.80;;;;;;;25.08;47.46;93770.38;5135333;27;20260;-78
2021/06/16 08:11:21;;;;;;;7.15;1.90;;;;;;;25.10;49.16;93778.88;5135526;27;20203;-79
2021/06/16 08:13:48;;;;;;;3.95;2.15;;;;;;;25.22;50.83;93766.97;5135577;27;20258;-80
2021/06/16 08:16:17;;;;;;;8.05;1.88;;;;;;;25.39;55.44;93772.56;5136015;27;20201;-78
2021/06/16 08:18:44;;;;;;;3.22;1.42;;;;;;;25.32;49.65;93768.69;5135613;27;20205;-78
2021/06/16 08:21:13;;;;;;;5.10;1.67;;;;;;;25.39;49.05;93766.44;5135495;27;20204;-77
2021/06/16 08:23:40;;;;;;;6.55;1.70;;;;;;;25.40;49.43;93766.13;5135288;27;20663;-78
2021/06/16 08:26:06;;;;;;;8.85;1.70;;;;;;;25.51;49.56;93768.63;5134899;27;20244;-76
2021/06/16 08:28:33;;;;;;;7.05;2.00;;;;;;;25.38;46.69;93771.00;5135359;27;20196;-79
2021/06/16 08:30:59;;;;;;;5.72;1.52;;;;;;;25.60;53.29;93772.22;5135345;27;20204;-78
2021/06/16 08:33:26;;;;;;;3.50;1.67;;;;;;;25.76;47.40;93767.38;5135335;27;20197;-80
2021/06/16 08:35:52;;;;;;;4.13;1.50;;;;;;;25.77;49.22;93767.09;5135239;27;20197;-80
2021/06/16 08:38:20;;;;;;;5.47;1.60;;;;;;;25.73;52.83;93766.09;5135150;27;20204;-81
2021/06/16 08:40:46;;;;;;;3.35;1.63;;;;;;;25.95;52.67;93772.66;5134892;27;20651;-81
2021/06/16 08:43:14;;;;;;;6.35;1.70;;;;;;;26.02;52.87;93773.06;5134863;27;20203;-80
2021/06/16 08:45:42;;;;;;;4.32;1.80;;;;;;;26.07;46.40;93777.53;5135166;27;20257;-80
2021/06/16 08:48:09;;;;;;;2.70;1.60;;;;;;;25.90;51.05;93770.09;5135097;27;20224;-79
2021/06/16 08:50:36;;;;;;;5.63;1.60;;;;;;;25.80;47.11;93781.75;5134978;27;20201;-81
2021/06/16 08:53:03;;;;;;;4.47;2.15;;;;;;;25.77;54.44;93777.78;5134864;27;20197;-80
2021/06/16 08:55:31;;;;;;;3.17;1.80;;;;;;;25.98;46.49;93769.41;5134566;27;20682;-79
2021/06/16 08:57:58;;;;;;;3.33;1.90;;;;;;;25.89;47.53;93769.28;5134583;27;20205;-80
2021/06/16 09:00:24;;;;;;;5.22;1.80;;;;;;;25.88;48.28;93778.41;5134737;27;20199;-80
2021/06/16 09:02:51;;;;;;;5.10;1.88;;;;;;;25.73;48.08;93774.13;5134713;27;20203;-79
2021/06/16 09:05:18;;;;;;;2.83;1.63;;;;;;;25.83;47.08;93770.44;5134742;27;20201;-79
2021/06/16 09:07:45;;;;;;;5.15;1.60;;;;;;;25.92;50.85;93767.91;5134370;27;20220;-80
2021/06/16 09:10:14;;;;;;;5.85;1.77;;;;;;;26.12;49.05;93767.53;5134369;27;20207;-79
2021/06/16 09:12:45;;;;;;;3.78;1.75;;;;;;;26.51;55.10;93765.38;5134337;27;20196;-79
2021/06/16 09:15:15;;;;;;;3.15;1.73;;;;;;;26.63;50.05;93764.88;5134350;27;20650;-80
2021/06/16 09:17:43;;;;;;;4.00;1.83;;;;;;;26.57;44.19;93778.38;5134413;27;20248;-78
2021/06/16 09:20:10;;;;;;;5.43;1.80;;;;;;;26.63;46.32;93770.22;5134311;27;20279;-79
2021/06/16 09:22:38;;;;;;;2.90;1.52;;;;;;;26.56;46.09;93768.78;5134309;27;20250;-78
2021/06/16 09:25:07;;;;;;;3.10;1.55;;;;;;;26.67;46.90;93761.31;5134014;27;20228;-80
2021/06/16 09:27:44;;;;;;;2.40;1.60;;;;;;;26.43;44.27;93772.25;5134287;27;20228;-80
2021/06/16 09:30:41;;;;;;;2.70;1.63;;;;;;;26.61;44.99;93761.72;5134319;27;20271;-78
2021/06/16 09:33:14;;;;;;;3.42;1.60;;;;;;;26.66;51.53;93757.03;5134609;27;20320;-78
2021/06/16 09:35:44;;;;;;;4.30;1.67;;;;;;;26.65;46.37;93765.41;5134267;27;20205;-78
2021/06/16 09:38:15;;;;;;;10.32;1.83;;;;;;;26.80;48.33;93770.41;5134219;27;20287;-77
2021/06/16 09:40:43;;;;;;;4.95;1.95;;;;;;;26.69;53.71;93766.38;5132677;27;20220;-78
2021/06/16 09:43:13;;;;;;;4.60;2.03;;;;;;;26.77;46.54;93777.16;5133649;27;20204;-78
2021/06/16 09:45:41;;;;;;;4.60;2.00;;;;;;;26.65;42.88;93773.44;5132938;27;20204;-80
2021/06/16 09:48:31;;;;;;;2.92;1.67;;;;;;;26.57;46.31;93769.56;5132967;27;20228;-79
2021/06/16 09:51:21;;;;;;;4.70;1.73;;;;;;;26.75;48.92;93765.97;5133749;28;20196;-78
2021/06/16 09:53:56;;;;;;;5.28;1.80;;;;;;;26.82;46.13;93762.88;5133597;28;20201;-78
2021/06/16 09:56:23;;;;;;;5.03;2.00;;;;;;;26.99;44.62;93766.78;5132065;28;20203;-76
2021/06/16 09:58:52;;;;;;;3.63;2.07;;;;;;;26.98;45.67;93760.63;5133393;28;20441;-78
2021/06/16 10:01:18;;;;;;;3.38;1.63;;;;;;;27.13;46.32;93762.16;5133417;28;20193;-77
2021/06/16 10:03:45;;;;;;;2.45;1.98;;;;;;;26.84;42.27;93760.66;5133697;28;20200;-78
2021/06/16 10:06:13;;;;;;;2.22;1.67;;;;;;;26.69;43.47;93764.47;5133662;28;20189;-77
2021/06/16 10:08:42;;;;;;;5.22;1.95;;;;;;;26.91;44.73;93763.75;5133604;27;20595;-76
2021/06/16 10:11:10;;;;;;;3.22;2.03;;;;;;;27.10;47.38;93765.44;5135441;27;20197;-76
2021/06/16 10:13:38;;;;;;;3.47;1.70;;;;;;;27.14;42.24;93774.44;5138101;27;20559;-79
2021/06/16 10:16:06;;;;;;;3.28;1.73;;;;;;;27.22;45.04;93762.22;5138002;27;20200;-77
2021/06/16 10:18:39;;;;;;;3.05;1.70;;;;;;;27.34;42.77;93764.38;5137679;27;20201;-76
2021/06/16 10:21:06;;;;;;;3.50;2.03;;;;;;;27.18;41.36;93756.69;5137848;27;20201;-79
2021/06/16 10:23:33;;;;;;;2.20;1.60;;;;;;;26.94;41.53;93755.06;5137894;27;20292;-79
2021/06/16 10:26:02;;;;;;;3.65;1.90;;;;;;;27.06;48.67;93754.56;5137492;27;20232;-80
2021/06/16 10:28:35;;;;;;;3.10;1.73;;;;;;;27.23;47.94;93747.69;5137632;27;20225;-78
2021/06/16 10:31:03;;;;;;;4.57;1.80;;;;;;;27.43;43.82;93754.47;5137620;27;20204;-79
2021/06/16 10:33:34;;;;;;;3.55;1.60;;;;;;;27.45;43.25;93750.41;5137011;27;20224;-78
2021/06/16 10:36:21;;;;;;;4.45;1.90;;;;;;;27.08;41.54;93749.66;5137511;27;20196;-79
2021/06/16 10:39:16;;;;;;;2.60;1.63;;;;;;;27.48;39.30;93751.69;5137462;27;20211;-78
2021/06/16 10:42:01;;;;;;;2.38;1.52;;;;;;;27.64;39.08;93752.06;5136561;27;20490;-79
2021/06/16 10:44:30;;;;;;;2.15;1.50;;;;;;;27.42;42.96;93750.22;5137379;27;20643;-79
2021/06/16 10:46:58;;;;;;;3.33;1.67;;;;;;;27.31;42.50;93741.63;5137294;27;20228;-79
2021/06/16 10:49:53;;;;;;;3.25;1.48;;;;;;;27.28;40.04;93745.69;5137285;27;20228;-79
2021/06/16 10:52:21;;;;;;;6.03;1.95;;;;;;;27.21;42.62;93734.63;5137288;27;20193;-79
2021/06/16 10:54:56;;;;;;;5.28;1.70;;;;;;;27.46;43.78;93735.09;5137304;27;20534;-79
2021/06/16 10:57:23;;;;;;;5.78;2.00;;;;;;;27.67;40.61;93744.19;5137149;27;20200;-80
2021/06/16 11:00:10;;;;;;;6.82;1.75;;;;;;;27.75;41.16;93737.28;5137158;27;20205;-76
2021/06/16 11:02:57;;;;;;;2.53;1.70;;;;;;;27.81;46.53;93729.88;5137133;27;20662;-79
2021/06/16 11:05:27;;;;;;;9.15;1.95;;;;;;;27.78;41.81;93735.88;5133350;27;20623;-79
2021/06/16 11:07:54;;;;;;;3.45;1.85;;;;;;;27.44;44.11;93737.28;5115969;27;20308;-80
2021/06/16 11:10:21;;;;;;;1.70;1.58;;;;;;;27.29;43.06;93743.84;5133273;27;20201;-79
2021/06/16 11:12:52;;;;;;;5.63;1.90;;;;;;;27.65;42.05;93740.25;5136581;27;20201;-79
2021/06/16 11:15:31;;;;;;;2.15;1.50;;;;;;;27.69;38.37;93742.00;5136567;27;20200;-78
2021/06/16 11:17:59;;;;;;;4.50;1.95;;;;;;;27.47;38.90;93742.03;5136759;27;20227;-79
2021/06/16 11:20:28;;;;;;;7.32;1.85;;;;;;;27.25;38.80;93732.13;5136408;27;20193;-80
2021/06/16 11:22:56;;;;;;;2.75;1.70;;;;;;;27.47;41.64;93726.75;5135262;27;20201;-79
2021/06/16 11:25:32;;;;;;;8.40;1.95;;;;;;;27.79;40.35;93732.09;5136460;27;20277;-80
2021/06/16 11:28:04;;;;;;;3.63;1.73;;;;;;;28.00;44.46;93730.47;5136285;27;20956;-79
2021/06/16 11:30:33;;;;;;;4.07;2.10;;;;;;;28.35;40.33;93741.28;5136226;27;20299;-78
2021/06/16 11:33:41;;;;;;;2.80;1.70;;;;;;;28.37;40.22;93730.25;5136461;27;20203;-79
2021/06/16 11:36:11;;;;;;;3.85;1.75;;;;;;;28.29;40.40;93728.31;5131574;27;20279;-79
2021/06/16 11:38:40;;;;;;;5.65;1.77;;;;;;;28.47;44.53;93721.09;5136235;27;20714;-80
2021/06/16 11:41:18;;;;;;;2.45;1.70;;;;;;;28.75;39.69;93710.88;5136238;27;20196;-80